Barnstable Municipal Airport

Airport
ICAO code: 
KHYA
Summary
ICAO Region: 
NAM
Territory: 
Location: 
Hyannis, Massachusetts,
Elevation: 
54 ft
Coordinates: 
Aerial View: 
41° 39' 56.17" N, 70° 16' 56.853" W
Airport BS: 
Bird Strike
Airport WX: 
Cumulonimbus
Metar
Observation
KHYA 021556Z 17009G15KT 10SM BKN120 12/09 A2977 RMK AO2 SLP081 T01170094
Station
Hyannis, Barnstable Municipal-Boardman Airport
Date/Time
2021-12-02 15:56:00
Wind direction
170°
Wind speed
09 kts
Lowest cloud amount
broken clouds
Temperature
11.7°C
Dew point
9.4°C
Humidity
85%
Weather condition
n/a

Description

Barnstable Municipal Airport, also known as Boardman/Polando Field, is a public airport located on Cape Cod, 2 km north of the central business district of Hyannis, in Barnstable County, Massachusetts.

Climatology

Humid continental climate with a maritime influence (Köppen climate classification Dfa/Cfa) - characterized by four seasons: cold, windy, snowy winters, mild springs, hot, humid summers, and crisp and relatively short autumns. Precipitation reaches its lowest in January and February and peaks in summer and latter half of spring.

Runways

Designator Length Width Surface Rops
15/33 1601 46 ASP Yes/Yes
6/24 1654 46 ASP Yes/Yes
Airport map: 
Aerial View: 

SKYbrary Partners:

Safety knowledge contributed by: